Time;durP1;ratioP1;P1;durP2;ratioP2;P2;SDS_P1;SDS_P2;PMS_P1;PMS_P2;Temp;Humidity;BMP_temperature;BMP_pressure;BME280_temperature;BME280_humidity;BME280_pressure;Samples;Min_cycle;Max_cycle;Signal;HPM_P1;HPM_P2
2022/06/06 04:02:37;;;;;;;12.53;11.63;;;17.10;99.90;;;;;;4948264;23;20504;-71
2022/06/06 04:05:06;;;;;;;13.43;11.97;;;17.10;99.90;;;;;;4963324;28;20574;-70
2022/06/06 04:07:34;;;;;;;14.83;13.43;;;17.10;99.90;;;;;;4959889;28;20496;-68
2022/06/06 04:10:01;;;;;;;12.47;11.30;;;17.00;99.90;;;;;;4962662;28;20467;-69
2022/06/06 04:13:03;;;;;;;13.03;11.93;;;17.00;99.90;;;;;;4962076;28;20488;-70
2022/06/06 04:15:37;;;;;;;14.30;13.00;;;17.00;99.90;;;;;;4956302;28;20459;-68
2022/06/06 04:18:26;;;;;;;13.60;12.40;;;17.00;99.90;;;;;;4963875;28;20819;-68
2022/06/06 04:21:06;;;;;;;13.50;12.30;;;17.00;99.90;;;;;;4937773;28;20493;-68
2022/06/06 04:23:58;;;;;;;13.40;12.20;;;17.00;99.90;;;;;;4964958;28;20526;-69
2022/06/06 04:26:34;;;;;;;14.90;13.50;;;17.00;99.90;;;;;;4968373;28;20492;-69
2022/06/06 04:29:05;;;;;;;13.20;11.90;;;17.00;99.90;;;;;;4963808;28;20460;-68
2022/06/06 04:31:44;;;;;;;15.90;12.20;;;17.00;99.90;;;;;;4962341;28;20503;-68
2022/06/06 04:34:17;;;;;;;13.87;11.90;;;17.00;99.90;;;;;;4970889;28;20466;-68
2022/06/06 04:36:50;;;;;;;13.47;12.33;;;17.00;99.90;;;;;;4963432;28;20483;-69
2022/06/06 04:39:22;;;;;;;13.47;12.03;;;17.10;99.90;;;;;;4957366;28;20475;-68
2022/06/06 04:41:55;;;;;;;13.17;11.97;;;17.10;99.90;;;;;;4959455;28;20495;-69
2022/06/06 04:44:30;;;;;;;14.67;13.23;;;17.20;99.90;;;;;;4972328;28;20463;-68
2022/06/06 04:47:01;;;;;;;13.57;12.27;;;17.20;99.90;;;;;;4962300;28;20483;-68
2022/06/06 04:49:32;;;;;;;13.03;11.93;;;17.20;99.90;;;;;;4957659;28;20468;-68
2022/06/06 04:52:00;;;;;;;13.77;12.40;;;17.30;99.90;;;;;;4958962;28;20495;-67
2022/06/06 04:54:29;;;;;;;13.40;12.00;;;17.40;99.90;;;;;;4966516;28;20952;-69
2022/06/06 04:56:56;;;;;;;14.80;13.40;;;17.30;99.90;;;;;;4962002;28;20495;-68
2022/06/06 04:59:25;;;;;;;13.80;12.50;;;17.40;99.90;;;;;;4966648;28;20471;-68
2022/06/06 05:01:51;;;;;;;13.33;11.93;;;17.40;99.90;;;;;;4962242;28;20880;-69
2022/06/06 05:04:18;;;;;;;13.40;12.00;;;17.40;99.90;;;;;;4960558;28;20465;-68
2022/06/06 05:07:15;;;;;;;12.70;11.40;;;17.40;99.90;;;;;;4951581;28;20496;-68
2022/06/06 05:10:02;;;;;;;12.63;11.33;;;17.50;99.90;;;;;;4957515;28;20483;-69
2022/06/06 05:12:47;;;;;;;13.60;12.33;;;17.50;99.90;;;;;;4963181;28;20476;-68
2022/06/06 05:15:27;;;;;;;14.47;12.97;;;17.50;99.90;;;;;;4961377;28;20558;-67
2022/06/06 05:18:09;;;;;;;14.90;13.50;;;17.50;99.90;;;;;;4961265;28;20459;-68
2022/06/06 05:20:49;;;;;;;12.63;11.47;;;17.50;99.90;;;;;;4964951;28;20492;-68
2022/06/06 05:23:34;;;;;;;13.87;12.57;;;17.60;99.90;;;;;;4967427;28;20463;-68
2022/06/06 05:26:19;;;;;;;12.93;11.70;;;17.80;99.90;;;;;;4958167;28;20500;-67
2022/06/06 05:29:08;;;;;;;11.73;10.53;;;17.80;99.90;;;;;;4942192;29;20468;-67
2022/06/06 05:31:49;;;;;;;13.70;12.50;;;17.80;99.90;;;;;;4963096;28;20480;-68
2022/06/06 05:34:21;;;;;;;13.83;12.30;;;17.90;99.90;;;;;;4956085;28;20473;-68
2022/06/06 05:37:05;;;;;;;14.03;12.60;;;17.90;99.90;;;;;;4954868;28;20468;-67
2022/06/06 05:39:51;;;;;;;15.07;13.40;;;17.90;99.90;;;;;;4952652;28;20547;-67
2022/06/06 05:42:47;;;;;;;13.80;12.70;;;18.00;99.90;;;;;;4959044;28;20851;-68
2022/06/06 05:45:26;;;;;;;15.17;13.67;;;18.20;99.90;;;;;;4956024;28;20471;-68
2022/06/06 05:48:01;;;;;;;13.23;12.00;;;18.40;99.90;;;;;;4957531;28;20491;-68
2022/06/06 05:50:47;;;;;;;13.70;12.20;;;18.40;99.90;;;;;;4960209;28;20467;-68
2022/06/06 05:53:31;;;;;;;14.60;12.87;;;18.50;99.90;;;;;;4963983;28;20460;-68
2022/06/06 05:56:38;;;;;;;14.97;12.77;;;18.60;99.90;;;;;;4961096;28;20575;-66
2022/06/06 05:59:21;;;;;;;15.90;14.07;;;18.70;99.90;;;;;;4950719;28;20476;-67
2022/06/06 06:02:01;;;;;;;15.03;13.53;;;18.80;99.90;;;;;;4944565;28;20500;-68
2022/06/06 06:04:53;;;;;;;16.47;14.70;;;19.00;99.90;;;;;;4962057;28;20460;-67
2022/06/06 06:07:29;;;;;;;18.20;15.33;;;19.10;99.90;;;;;;4952224;28;20507;-67
2022/06/06 06:10:08;;;;;;;17.20;15.40;;;19.40;99.90;;;;;;4961968;28;20465;-68
2022/06/06 06:12:50;;;;;;;15.70;14.10;;;19.70;99.90;;;;;;4962834;28;20546;-68
2022/06/06 06:15:26;;;;;;;16.97;13.83;;;20.50;99.90;;;;;;4955417;28;20472;-69
2022/06/06 06:17:55;;;;;;;15.23;13.70;;;21.30;99.90;;;;;;4956062;28;20486;-69
2022/06/06 06:20:25;;;;;;;18.20;13.87;;;21.90;99.90;;;;;;4964951;28;20465;-69
2022/06/06 06:22:56;;;;;;;12.73;11.63;;;22.40;99.90;;;;;;4960115;28;20498;-70
2022/06/06 06:25:25;;;;;;;14.33;12.77;;;22.30;99.90;;;;;;4969978;28;20474;-69
2022/06/06 06:27:57;;;;;;;15.17;13.67;;;22.10;99.90;;;;;;4968001;28;20484;-70
2022/06/06 06:30:27;;;;;;;14.10;12.67;;;21.70;99.90;;;;;;4961720;28;20468;-69
2022/06/06 06:33:08;;;;;;;15.10;13.70;;;21.30;99.90;;;;;;4956205;28;20483;-69
2022/06/06 06:35:45;;;;;;;14.90;13.40;;;21.20;99.90;;;;;;4959505;28;20776;-69
2022/06/06 06:38:31;;;;;;;14.83;13.33;;;21.20;99.90;;;;;;4956630;28;20959;-69
2022/06/06 06:41:06;;;;;;;14.10;12.80;;;21.40;99.90;;;;;;4946488;29;20490;-70
2022/06/06 06:43:48;;;;;;;13.97;12.47;;;21.50;99.90;;;;;;4957249;28;20475;-69
2022/06/06 06:46:20;;;;;;;13.30;11.93;;;22.00;99.90;;;;;;4968163;28;20823;-69
2022/06/06 06:48:51;;;;;;;15.00;13.50;;;21.90;99.90;;;;;;4961954;28;20566;-70
2022/06/06 06:51:23;;;;;;;13.23;12.03;;;21.60;99.90;;;;;;4951230;28;20492;-69
2022/06/06 06:54:08;;;;;;;13.67;12.37;;;21.10;99.90;;;;;;4951006;28;20477;-70
2022/06/06 06:56:48;;;;;;;13.40;12.10;;;20.60;99.90;;;;;;4952139;28;20472;-69
2022/06/06 06:59:25;;;;;;;13.40;12.20;;;20.30;99.90;;;;;;4961310;28;20461;-70
2022/06/06 07:11:04;;;;;;;12.03;10.17;;;19.20;99.90;;;;;;4947734;28;20488;-69
2022/06/06 07:13:44;;;;;;;9.27;8.27;;;19.00;99.90;;;;;;4961318;28;20486;-69
2022/06/06 07:16:21;;;;;;;9.07;8.17;;;18.90;99.90;;;;;;4952481;28;20479;-69
2022/06/06 07:18:52;;;;;;;8.43;7.63;;;19.70;99.90;;;;;;4957330;28;20460;-71
2022/06/06 07:21:20;;;;;;;8.40;7.70;;;20.40;99.90;;;;;;4954584;28;20492;-69
2022/06/06 07:23:49;;;;;;;8.83;8.03;;;21.30;99.90;;;;;;4958413;28;20480;-70
2022/06/06 07:26:16;;;;;;;8.60;7.93;;;21.80;99.90;;;;;;4960149;28;20514;-69
2022/06/06 07:28:44;;;;;;;10.30;8.87;;;21.60;99.90;;;;;;4956463;28;20780;-70
2022/06/06 07:31:21;;;;;;;9.50;8.60;;;21.20;99.90;;;;;;4964034;28;20566;-70
2022/06/06 07:34:14;;;;;;;9.67;8.67;;;20.80;99.90;;;;;;4962293;28;20944;-70
2022/06/06 07:36:52;;;;;;;9.03;8.17;;;20.40;99.90;;;;;;4952878;28;20469;-69
2022/06/06 07:39:29;;;;;;;8.70;7.90;;;20.20;99.90;;;;;;4957589;28;20991;-68
2022/06/06 07:42:11;;;;;;;11.53;8.87;;;19.90;99.90;;;;;;4947401;28;20488;-69
2022/06/06 07:44:49;;;;;;;9.63;8.40;;;19.60;99.90;;;;;;4954562;28;20572;-69
2022/06/06 07:47:29;;;;;;;9.80;7.57;;;19.40;99.90;;;;;;4957921;28;20489;-69
2022/06/06 07:49:59;;;;;;;8.40;7.63;;;19.10;99.90;;;;;;4956169;28;20471;-68
2022/06/06 07:52:34;;;;;;;8.60;7.70;;;19.00;99.90;;;;;;4956882;28;21055;-69
2022/06/06 07:55:09;;;;;;;8.10;7.30;;;19.00;99.90;;;;;;4954605;28;20456;-69
2022/06/06 07:57:42;;;;;;;8.13;7.33;;;19.00;99.90;;;;;;4959246;28;20475;-69
2022/06/06 08:00:12;;;;;;;8.30;7.63;;;19.00;99.90;;;;;;4953790;28;20469;-68
2022/06/06 08:02:52;;;;;;;8.70;7.80;;;19.00;99.90;;;;;;4959662;28;20496;-69
2022/06/06 08:05:38;;;;;;;6.93;6.43;;;19.00;99.90;;;;;;4952522;28;20840;-69
2022/06/06 08:08:14;;;;;;;9.70;7.13;;;18.90;99.90;;;;;;4959172;28;21000;-69
2022/06/06 08:10:43;;;;;;;8.30;7.07;;;19.00;99.90;;;;;;4948178;28;20489;-69
2022/06/06 08:13:27;;;;;;;8.43;7.50;;;19.00;99.90;;;;;;4955283;28;20976;-69
2022/06/06 08:16:11;;;;;;;7.23;6.53;;;19.10;99.90;;;;;;4953749;28;20472;-70
2022/06/06 08:19:02;;;;;;;6.73;6.10;;;19.20;99.90;;;;;;4960792;28;20459;-69
2022/06/06 08:21:35;;;;;;;7.90;7.10;;;19.20;99.90;;;;;;4958510;28;20488;-70
2022/06/06 08:24:05;;;;;;;6.57;5.97;;;19.40;99.90;;;;;;4966200;28;20831;-69
2022/06/06 08:26:37;;;;;;;9.80;6.60;;;19.50;99.90;;;;;;4950565;28;21039;-68
2022/06/06 08:29:06;;;;;;;7.30;6.70;;;19.80;99.90;;;;;;4961193;28;20957;-69
2022/06/06 08:31:33;;;;;;;5.90;5.50;;;20.00;99.90;;;;;;4960850;28;20782;-69
2022/06/06 08:34:01;;;;;;;7.23;5.77;;;20.10;99.90;;;;;;4967562;28;20460;-69
2022/06/06 08:36:47;;;;;;;6.67;6.07;;;20.60;99.90;;;;;;4961628;28;20469;-69
2022/06/06 08:39:22;;;;;;;7.40;6.10;;;20.80;99.90;;;;;;4963127;28;20825;-68
2022/06/06 08:42:11;;;;;;;5.60;5.20;;;20.90;99.90;;;;;;4961435;28;20498;-69
2022/06/06 08:44:53;;;;;;;5.97;5.53;;;21.10;99.90;;;;;;4963499;28;20830;-69
2022/06/06 08:47:30;;;;;;;6.17;5.60;;;21.00;99.90;;;;;;4962748;28;20492;-69
2022/06/06 08:53:49;;;;;;;5.93;5.53;;;20.70;99.90;;;;;;4946125;29;20472;-68
2022/06/06 08:56:49;;;;;;;5.23;4.90;;;20.80;99.90;;;;;;4945992;29;20495;-70
2022/06/06 09:00:07;;;;;;;5.37;4.97;;;21.00;99.90;;;;;;4958564;28;20467;-69
2022/06/06 09:03:14;;;;;;;5.13;4.63;;;21.50;99.90;;;;;;4959733;28;20496;-70
2022/06/06 09:06:20;;;;;;;4.53;4.13;;;21.90;99.90;;;;;;4951485;28;20507;-71
2022/06/06 09:09:19;;;;;;;4.83;4.63;;;22.00;99.90;;;;;;4940298;28;20468;-70
2022/06/06 09:12:26;;;;;;;5.30;4.90;;;22.00;99.90;;;;;;4949327;28;20491;-70
2022/06/06 09:15:22;;;;;;;5.43;5.07;;;22.00;99.90;;;;;;4956257;28;20673;-72
2022/06/06 09:18:21;;;;;;;4.63;4.43;;;22.10;99.90;;;;;;4957905;28;20461;-71
2022/06/06 09:21:02;;;;;;;4.50;4.30;;;21.90;99.90;;;;;;4938221;29;20491;-70
2022/06/06 09:24:15;;;;;;;6.40;4.47;;;21.70;99.90;;;;;;4960422;28;20464;-71
2022/06/06 09:26:53;;;;;;;4.50;4.30;;;21.30;99.90;;;;;;4957202;28;20490;-71
2022/06/06 09:29:56;;;;;;;4.80;4.50;;;21.10;99.90;;;;;;4961388;28;20806;-71
2022/06/06 09:32:48;;;;;;;5.37;5.07;;;20.70;99.90;;;;;;4962010;28;21113;-69
2022/06/06 09:35:38;;;;;;;4.90;4.60;;;20.70;99.90;;;;;;4951548;28;20465;-70
2022/06/06 09:38:13;;;;;;;5.03;4.73;;;20.90;99.90;;;;;;4952125;28;20461;-70
2022/06/06 09:40:56;;;;;;;4.27;3.97;;;21.10;99.90;;;;;;4960476;28;20484;-71
2022/06/06 09:43:34;;;;;;;5.00;4.70;;;21.20;99.90;;;;;;4961746;28;20467;-71
2022/06/06 09:46:42;;;;;;;4.80;4.47;;;21.30;99.90;;;;;;4964996;28;20483;-71
2022/06/06 09:49:34;;;;;;;4.80;4.40;;;21.40;99.90;;;;;;4935039;29;21084;-71
2022/06/06 09:52:29;;;;;;;5.30;4.53;;;21.50;99.90;;;;;;4960067;28;20487;-70
2022/06/06 09:59:04;;;;;;;5.27;4.97;;;22.10;99.90;;;;;;4950669;28;20936;-69
2022/06/06 10:02:15;;;;;;;5.07;4.63;;;22.30;99.90;;;;;;4958641;28;20547;-70
2022/06/06 10:05:12;;;;;;;5.90;5.50;;;22.50;99.90;;;;;;4963419;28;20467;-72
2022/06/06 10:08:15;;;;;;;5.27;4.90;;;22.50;99.90;;;;;;4960883;28;20841;-69
2022/06/06 10:10:56;;;;;;;5.97;5.47;;;22.20;99.90;;;;;;4963135;28;20491;-70
2022/06/06 10:13:39;;;;;;;6.93;5.30;;;22.00;99.90;;;;;;4957740;28;20484;-69
2022/06/06 10:16:18;;;;;;;5.20;4.90;;;21.70;99.90;;;;;;4951665;28;20464;-70
2022/06/06 10:19:04;;;;;;;5.70;5.27;;;21.70;99.90;;;;;;4950128;28;20459;-70
2022/06/06 10:21:58;;;;;;;5.97;5.47;;;21.80;99.90;;;;;;4967460;28;20542;-70
2022/06/06 10:24:47;;;;;;;6.37;5.97;;;21.90;99.90;;;;;;4932140;28;20473;-69
2022/06/06 10:27:29;;;;;;;5.40;5.07;;;22.00;99.90;;;;;;4967004;28;20827;-69
2022/06/06 10:30:12;;;;;;;5.60;5.20;;;22.10;99.90;;;;;;4961240;28;20921;-69
2022/06/06 10:33:27;;;;;;;6.47;6.13;;;22.10;99.90;;;;;;4968545;28;20463;-69
2022/06/06 10:36:22;;;;;;;6.30;5.93;;;22.20;99.90;;;;;;4947819;28;20479;-70
2022/06/06 10:39:07;;;;;;;5.90;5.50;;;22.30;99.90;;;;;;4941059;28;20469;-70
2022/06/06 10:41:49;;;;;;;16.13;14.77;;;22.50;99.90;;;;;;4951112;28;20489;-70
2022/06/06 10:44:43;;;;;;;6.57;6.17;;;22.80;99.90;;;;;;4944914;28;20480;-68
2022/06/06 10:47:29;;;;;;;6.03;5.63;;;22.90;99.90;;;;;;4954120;28;20487;-68
2022/06/06 10:50:03;;;;;;;6.00;5.60;;;23.20;99.90;;;;;;4953040;28;20464;-69
2022/06/06 10:53:04;;;;;;;6.13;5.83;;;23.40;99.90;;;;;;4955554;28;20495;-69
2022/06/06 10:56:05;;;;;;;7.13;6.53;;;23.20;99.90;;;;;;4938163;28;20895;-70
2022/06/06 10:58:49;;;;;;;6.53;6.13;;;23.20;99.90;;;;;;4957211;28;20472;-70
2022/06/06 11:02:00;;;;;;;6.90;6.50;;;23.10;99.90;;;;;;4959032;28;20600;-70
2022/06/06 11:05:12;;;;;;;6.20;5.80;;;23.20;99.90;;;;;;4965954;28;20948;-70
2022/06/06 11:08:18;;;;;;;7.17;6.60;;;22.80;99.90;;;;;;4936248;29;20484;-68
2022/06/06 11:11:23;;;;;;;6.60;6.20;;;22.60;99.90;;;;;;4937580;29;20488;-70
2022/06/06 11:13:59;;;;;;;6.23;5.93;;;22.60;99.90;;;;;;4954325;28;20465;-69
2022/06/06 11:17:08;;;;;;;6.40;6.10;;;22.80;99.90;;;;;;4960873;28;20476;-70
2022/06/06 11:20:10;;;;;;;6.40;6.00;;;23.10;99.90;;;;;;4954043;28;20909;-71
2022/06/06 11:22:39;;;;;;;7.20;6.83;;;23.40;99.90;;;;;;4957643;28;20484;-70
2022/06/06 11:25:11;;;;;;;6.27;5.87;;;23.20;99.90;;;;;;4997697;23;20869;-69
2022/06/06 11:28:05;;;;;;;6.23;5.83;;;22.90;99.90;;;;;;4988104;28;20604;-69
2022/06/06 11:30:51;;;;;;;6.80;6.40;;;22.90;99.90;;;;;;4988973;28;20835;-67
2022/06/06 11:33:55;;;;;;;7.03;6.43;;;22.90;99.90;;;;;;4990128;28;20467;-69
2022/06/06 11:36:48;;;;;;;7.00;6.60;;;23.00;99.90;;;;;;4972859;28;20942;-67
2022/06/06 11:39:35;;;;;;;6.73;6.33;;;23.10;99.90;;;;;;4972309;28;20444;-68
2022/06/06 11:42:38;;;;;;;6.10;5.80;;;23.10;99.90;;;;;;4994209;28;20974;-68
2022/06/06 11:45:30;;;;;;;7.27;6.80;;;23.30;99.90;;;;;;4983413;28;20485;-68
2022/06/06 11:48:23;;;;;;;6.60;6.23;;;23.20;99.90;;;;;;4985512;28;20494;-67
2022/06/06 11:51:22;;;;;;;6.40;5.80;;;23.30;99.90;;;;;;4996697;28;20565;-67
2022/06/06 11:54:27;;;;;;;5.73;5.43;;;23.50;99.90;;;;;;4973419;28;20490;-68
2022/06/06 11:57:25;;;;;;;5.60;5.30;;;23.50;99.90;;;;;;4986074;28;20818;-68
2022/06/06 12:00:17;;;;;;;4.70;4.60;;;23.50;99.90;;;;;;4987796;28;20474;-71
2022/06/06 12:03:24;;;;;;;4.50;4.40;;;23.40;99.90;;;;;;4996359;28;20978;-68
2022/06/06 12:06:20;;;;;;;4.37;4.17;;;23.40;99.90;;;;;;5001261;28;21014;-68
2022/06/06 12:09:12;;;;;;;4.50;4.40;;;23.60;99.90;;;;;;4995532;28;20487;-67
2022/06/06 12:12:24;;;;;;;5.30;4.10;;;24.10;99.90;;;;;;4987103;28;20474;-68
2022/06/06 12:15:08;;;;;;;4.83;4.53;;;24.40;99.90;;;;;;4930670;29;20504;-67
2022/06/06 12:17:46;;;;;;;4.10;4.00;;;24.30;99.90;;;;;;4976044;28;20463;-67
2022/06/06 12:20:37;;;;;;;4.67;4.53;;;24.30;99.90;;;;;;4970954;28;20582;-67
2022/06/06 12:23:12;;;;;;;4.00;3.90;;;24.30;99.90;;;;;;4970629;28;20464;-69
2022/06/06 12:25:55;;;;;;;4.00;3.90;;;24.40;99.90;;;;;;4980958;28;20494;-68
2022/06/06 12:28:50;;;;;;;4.60;4.40;;;24.40;99.90;;;;;;4986882;28;20501;-67
2022/06/06 12:31:47;;;;;;;3.93;3.83;;;24.50;99.90;;;;;;5001048;28;20488;-69
2022/06/06 12:34:21;;;;;;;4.07;3.87;;;24.70;99.90;;;;;;5007873;28;20593;-67
2022/06/06 12:36:54;;;;;;;4.20;4.10;;;24.80;99.90;;;;;;5012136;28;20472;-68
2022/06/06 12:39:32;;;;;;;4.40;4.23;;;24.70;99.90;;;;;;4994298;28;20463;-67
2022/06/06 12:42:11;;;;;;;4.10;4.00;;;24.40;99.90;;;;;;4993892;28;20466;-67
2022/06/06 12:45:09;;;;;;;4.63;4.43;;;24.10;99.90;;;;;;4994269;28;21074;-69
2022/06/06 12:47:49;;;;;;;3.90;3.70;;;24.00;99.90;;;;;;4986980;28;21081;-67
2022/06/06 12:50:30;;;;;;;4.13;3.87;;;24.10;99.90;;;;;;4973937;28;20467;-67
2022/06/06 12:53:32;;;;;;;3.20;3.20;;;24.10;99.90;;;;;;4974803;28;20921;-68
2022/06/06 12:56:21;;;;;;;3.67;3.60;;;24.00;99.40;;;;;;4976562;28;20554;-67
2022/06/06 12:59:07;;;;;;;3.20;3.20;;;24.00;99.50;;;;;;4976336;28;20956;-68
2022/06/06 13:01:42;;;;;;;4.53;3.77;;;24.00;99.70;;;;;;4975192;28;20459;-68
2022/06/06 13:04:46;;;;;;;3.27;3.27;;;23.80;99.70;;;;;;4981694;28;20494;-67
2022/06/06 13:07:29;;;;;;;3.53;3.50;;;23.60;99.90;;;;;;4983276;28;20463;-69
2022/06/06 13:10:08;;;;;;;3.10;3.10;;;23.70;99.80;;;;;;4993353;28;20459;-67
2022/06/06 13:13:13;;;;;;;3.13;3.10;;;23.90;99.90;;;;;;4993736;28;20470;-68
2022/06/06 13:15:46;;;;;;;2.63;2.63;;;24.10;99.30;;;;;;4994003;28;20479;-68
2022/06/06 13:18:28;;;;;;;2.53;2.53;;;24.00;98.30;;;;;;4983097;28;20532;-67
2022/06/06 13:21:05;;;;;;;2.80;2.60;;;24.10;97.60;;;;;;4973675;28;20484;-68
2022/06/06 13:23:58;;;;;;;2.80;2.70;;;24.20;97.60;;;;;;4973295;28;20471;-68
2022/06/06 13:26:39;;;;;;;2.67;2.67;;;24.30;97.60;;;;;;4973931;28;20558;-67
2022/06/06 13:29:06;;;;;;;2.70;2.70;;;24.30;97.20;;;;;;4990948;28;20848;-68
2022/06/06 13:31:46;;;;;;;2.03;2.03;;;24.40;96.80;;;;;;4990420;28;20459;-67
2022/06/06 13:34:27;;;;;;;2.87;2.77;;;24.40;96.50;;;;;;4997564;28;20486;-68
2022/06/06 13:37:06;;;;;;;2.20;2.20;;;24.30;96.00;;;;;;4973648;28;20554;-68
2022/06/06 13:39:50;;;;;;;2.30;2.30;;;24.30;95.60;;;;;;4976229;28;20459;-69
2022/06/06 13:42:25;;;;;;;3.03;2.60;;;24.20;95.30;;;;;;4975771;28;20452;-68
2022/06/06 13:45:11;;;;;;;2.57;2.47;;;24.30;96.10;;;;;;4997026;28;21029;-68
2022/06/06 13:47:59;;;;;;;3.37;3.37;;;24.20;96.10;;;;;;4995747;28;20474;-68
2022/06/06 13:50:31;;;;;;;2.00;2.00;;;24.30;96.70;;;;;;4983252;28;20480;-69
2022/06/06 13:53:14;;;;;;;1.60;1.60;;;24.30;94.90;;;;;;4990048;28;20937;-69
2022/06/06 13:55:42;;;;;;;1.70;1.70;;;24.40;93.20;;;;;;4997638;28;20538;-68
2022/06/06 13:58:37;;;;;;;1.40;1.40;;;24.40;93.50;;;;;;4998933;28;20489;-68
2022/06/06 14:01:24;;;;;;;1.50;1.50;;;24.40;92.10;;;;;;4972145;28;20483;-67
2022/06/06 14:04:03;;;;;;;1.40;1.40;;;24.30;91.40;;;;;;4993591;28;21053;-68
2022/06/06 14:06:47;;;;;;;2.37;2.37;;;24.30;91.90;;;;;;4990790;28;20978;-69
2022/06/06 14:09:17;;;;;;;2.93;2.73;;;24.30;94.90;;;;;;5001103;28;20482;-68
2022/06/06 14:12:03;;;;;;;2.50;2.50;;;24.10;97.20;;;;;;4984827;28;20468;-68
2022/06/06 14:14:32;;;;;;;2.87;2.77;;;24.10;96.70;;;;;;4996657;28;20491;-68
2022/06/06 14:17:02;;;;;;;2.57;2.57;;;23.90;96.50;;;;;;4987815;28;20488;-69
2022/06/06 14:19:34;;;;;;;3.30;3.20;;;23.90;97.10;;;;;;4994288;28;20463;-69
2022/06/06 14:22:03;;;;;;;2.50;2.50;;;24.00;96.80;;;;;;4997277;28;21157;-69
2022/06/06 14:24:33;;;;;;;2.67;2.67;;;24.00;96.90;;;;;;4988339;28;20491;-69
2022/06/06 14:27:04;;;;;;;2.60;2.60;;;24.10;97.20;;;;;;4995373;28;20516;-68
2022/06/06 14:29:33;;;;;;;2.57;2.47;;;24.10;97.10;;;;;;4989480;28;20833;-69
2022/06/06 14:32:04;;;;;;;2.57;2.50;;;24.20;97.30;;;;;;4985227;28;20466;-68
2022/06/06 14:34:42;;;;;;;2.80;2.70;;;24.30;97.00;;;;;;4983881;28;20487;-68
2022/06/06 14:37:16;;;;;;;2.20;2.20;;;24.40;97.30;;;;;;4972381;28;20870;-69
2022/06/06 14:39:45;;;;;;;2.50;2.50;;;24.40;96.90;;;;;;4975861;28;20961;-70
2022/06/06 14:42:14;;;;;;;2.80;2.53;;;24.40;97.00;;;;;;4987134;28;20466;-68
2022/06/06 14:44:45;;;;;;;2.40;2.20;;;24.40;96.70;;;;;;4983825;28;21019;-69
2022/06/06 14:47:15;;;;;;;2.00;2.00;;;24.40;96.30;;;;;;4972864;28;20892;-69
2022/06/06 14:50:45;;;;;;;2.60;2.47;;;24.50;96.40;;;;;;4972624;28;20492;-68
2022/06/06 14:52:33;;;;;;;2.00;2.00;;;24.50;96.70;;;;;;4972164;28;20460;-68
2022/06/06 14:55:01;;;;;;;2.53;2.43;;;24.60;96.70;;;;;;4971913;28;20484;-68
2022/06/06 14:57:30;;;;;;;2.20;2.20;;;24.60;96.60;;;;;;4979207;28;20462;-69
2022/06/06 14:59:59;;;;;;;2.43;2.33;;;24.60;96.60;;;;;;4987934;28;20506;-69
2022/06/06 15:02:29;;;;;;;2.67;2.60;;;24.40;95.80;;;;;;4972298;28;20917;-68
2022/06/06 15:05:15;;;;;;;1.90;1.80;;;24.20;95.50;;;;;;4984257;28;21003;-69
2022/06/06 15:07:49;;;;;;;1.97;1.93;;;24.10;95.90;;;;;;4990968;28;21045;-68
2022/06/06 15:10:34;;;;;;;2.23;2.23;;;23.90;95.10;;;;;;4984745;28;20590;-69
2022/06/06 15:13:02;;;;;;;1.60;1.60;;;23.70;94.50;;;;;;4982403;28;20538;-68
2022/06/06 15:15:31;;;;;;;2.05;1.95;;;23.50;95.20;;;;;;4972504;28;20473;-69
2022/06/06 15:17:58;;;;;;;7.17;3.20;;;23.40;98.40;;;;;;4988718;28;20204;-68
2022/06/06 15:20:28;;;;;;;3.03;2.70;;;23.10;99.90;;;;;;4985847;28;20471;-70
2022/06/06 15:22:59;;;;;;;3.57;3.47;;;22.70;99.90;;;;;;4992789;28;21038;-69
2022/06/06 15:25:33;;;;;;;3.20;3.10;;;22.40;99.90;;;;;;4988396;28;20491;-68
2022/06/06 15:28:10;;;;;;;2.83;2.83;;;22.10;99.90;;;;;;4972138;28;20464;-69
2022/06/06 15:30:51;;;;;;;2.97;2.97;;;21.90;99.90;;;;;;4971051;28;20539;-68
2022/06/06 15:33:24;;;;;;;4.27;3.97;;;21.70;99.90;;;;;;4972196;28;20820;-71
2022/06/06 15:35:59;;;;;;;3.30;3.20;;;21.70;99.90;;;;;;4972015;28;20464;-68
2022/06/06 15:38:47;;;;;;;3.17;3.13;;;22.00;99.90;;;;;;4971446;28;20518;-68
2022/06/06 15:41:25;;;;;;;2.70;2.70;;;22.40;99.90;;;;;;4988206;28;20469;-68
2022/06/06 15:44:02;;;;;;;2.07;2.07;;;22.60;99.90;;;;;;4972375;28;20495;-68
2022/06/06 15:46:55;;;;;;;2.23;2.23;;;22.60;99.90;;;;;;4976216;28;20451;-70
2022/06/06 15:49:36;;;;;;;2.60;2.60;;;22.40;99.90;;;;;;4991413;28;20554;-69
2022/06/06 15:52:16;;;;;;;2.37;2.27;;;22.50;99.90;;;;;;4971660;28;20460;-69
2022/06/06 15:54:49;;;;;;;1.73;1.70;;;22.50;99.90;;;;;;4981864;28;20518;-69
2022/06/06 15:57:22;;;;;;;3.30;2.20;;;22.50;99.90;;;;;;4990949;28;20455;-68
2022/06/06 16:00:08;;;;;;;1.70;1.70;;;22.70;99.90;;;;;;4985685;28;20522;-68
2022/06/06 16:02:38;;;;;;;1.90;1.63;;;22.80;99.90;;;;;;5001017;28;20967;-69
2022/06/06 16:05:14;;;;;;;1.90;1.90;;;22.80;99.90;;;;;;5002119;28;20856;-70
2022/06/06 16:07:51;;;;;;;1.40;1.40;;;22.70;99.90;;;;;;4971661;28;20471;-69
2022/06/06 16:10:23;;;;;;;1.90;1.90;;;22.70;99.90;;;;;;4979177;28;20470;-69
2022/06/06 16:13:04;;;;;;;1.30;1.30;;;22.60;99.90;;;;;;4987355;28;20506;-69
2022/06/06 16:15:37;;;;;;;1.70;1.63;;;22.60;99.90;;;;;;4979897;28;21268;-69
2022/06/06 16:18:12;;;;;;;2.03;1.93;;;22.50;99.90;;;;;;4993600;28;20562;-69
2022/06/06 16:20:45;;;;;;;1.50;1.50;;;22.50;99.90;;;;;;4976006;28;20459;-68
2022/06/06 16:23:19;;;;;;;1.70;1.70;;;22.40;99.90;;;;;;4975151;28;20856;-68
2022/06/06 16:25:52;;;;;;;1.73;1.73;;;22.50;99.90;;;;;;4982437;28;20459;-68
2022/06/06 16:28:22;;;;;;;1.40;1.40;;;22.50;99.90;;;;;;4991169;28;20517;-69
2022/06/06 16:30:54;;;;;;;1.53;1.53;;;22.40;99.90;;;;;;4988793;28;20444;-68
2022/06/06 16:33:24;;;;;;;1.57;1.57;;;22.30;99.90;;;;;;4975700;28;20464;-68
2022/06/06 16:35:53;;;;;;;1.70;1.60;;;22.30;99.90;;;;;;4995683;28;20508;-68
2022/06/06 16:38:23;;;;;;;1.57;1.47;;;22.30;99.90;;;;;;5005145;28;20466;-68
2022/06/06 16:40:53;;;;;;;1.40;1.40;;;22.20;99.90;;;;;;4974340;28;20459;-68
2022/06/06 16:49:35;;;;;;;1.50;1.50;;;22.30;99.90;;;;;;4974957;28;20487;-70
2022/06/06 16:52:11;;;;;;;1.70;1.70;;;22.40;99.90;;;;;;4974974;28;20883;-70
2022/06/06 16:54:49;;;;;;;2.27;1.80;;;22.50;99.90;;;;;;4994545;28;20501;-68
2022/06/06 16:57:23;;;;;;;2.60;2.07;;;22.60;99.90;;;;;;5002852;28;20502;-67
2022/06/06 17:00:00;;;;;;;2.33;2.13;;;22.50;99.90;;;;;;4974376;28;20467;-67
2022/06/06 17:02:52;;;;;;;1.60;1.60;;;22.40;99.90;;;;;;4974581;28;20803;-68
2022/06/06 17:07:45;;;;;;;1.70;1.70;;;22.10;99.90;;;;;;4990501;28;21009;-68
2022/06/06 17:08:32;;;;;;;1.63;1.60;;;21.90;99.90;;;;;;4982777;28;20550;-69
2022/06/06 17:11:09;;;;;;;1.60;1.60;;;21.90;99.90;;;;;;4995078;28;20580;-69
2022/06/06 17:13:39;;;;;;;1.60;1.60;;;21.80;99.90;;;;;;4990015;28;20855;-67
2022/06/06 17:16:28;;;;;;;1.83;1.83;;;21.70;99.90;;;;;;4974610;28;20459;-68
2022/06/06 17:19:02;;;;;;;2.40;2.40;;;21.70;99.90;;;;;;4973724;28;20460;-68
2022/06/06 17:21:39;;;;;;;1.40;1.40;;;21.60;99.90;;;;;;4973761;28;20838;-69
2022/06/06 17:24:27;;;;;;;1.57;1.57;;;21.50;99.90;;;;;;4973870;28;20491;-68
2022/06/06 17:26:57;;;;;;;1.50;1.40;;;21.40;99.90;;;;;;4973886;28;21079;-67
2022/06/06 17:29:41;;;;;;;1.20;1.20;;;21.40;99.90;;;;;;4975346;28;20535;-67
2022/06/06 17:32:13;;;;;;;0.90;0.90;;;21.40;99.90;;;;;;5004121;28;20590;-67
2022/06/06 17:34:43;;;;;;;0.90;0.90;;;21.50;99.90;;;;;;4984441;28;20480;-68
2022/06/06 17:37:26;;;;;;;1.23;1.23;;;21.60;99.90;;;;;;4973549;28;21317;-68
2022/06/06 17:39:58;;;;;;;1.03;0.60;;;21.60;99.90;;;;;;4973142;28;20459;-69
2022/06/06 17:42:31;;;;;;;0.70;0.70;;;21.80;99.90;;;;;;4974464;28;20519;-68
2022/06/06 17:45:24;;;;;;;0.90;0.90;;;21.80;99.90;;;;;;4974015;28;20492;-68
2022/06/06 17:47:59;;;;;;;0.80;0.80;;;21.90;99.70;;;;;;4984341;28;20469;-68
2022/06/06 17:50:35;;;;;;;0.73;0.73;;;21.90;99.20;;;;;;4984183;28;21480;-69
2022/06/06 17:53:24;;;;;;;0.90;0.90;;;21.80;99.90;;;;;;4984222;28;20482;-70
2022/06/06 17:56:02;;;;;;;6.33;1.10;;;21.60;99.90;;;;;;4985273;28;20807;-69
2022/06/06 17:58:53;;;;;;;0.53;0.53;;;21.50;99.90;;;;;;4995325;28;20467;-70
2022/06/06 18:02:06;;;;;;;0.77;0.77;;;21.40;99.90;;;;;;4999738;28;20457;-71
2022/06/06 18:05:00;;;;;;;0.63;0.60;;;21.20;99.90;;;;;;4992508;28;20513;-70
2022/06/06 18:07:46;;;;;;;0.70;0.70;;;21.10;99.90;;;;;;4972164;28;20999;-68
2022/06/06 18:10:22;;;;;;;0.80;0.80;;;21.00;99.90;;;;;;4995831;28;21013;-67
2022/06/06 18:13:05;;;;;;;0.97;0.97;;;20.90;99.90;;;;;;4995447;28;20844;-67
2022/06/06 18:15:40;;;;;;;1.00;1.00;;;20.80;99.90;;;;;;4992775;28;20498;-68
2022/06/06 18:18:13;;;;;;;0.70;0.70;;;20.80;99.90;;;;;;4982178;28;20473;-67
2022/06/06 18:20:52;;;;;;;0.90;0.90;;;20.70;99.90;;;;;;4994890;28;21026;-69